Time;durP1;ratioP1;P1;durP2;ratioP2;P2;SDS_P1;SDS_P2;PMS_P1;PMS_P2;Temp;Humidity;BMP_temperature;BMP_pressure;BME280_temperature;BME280_humidity;BME280_pressure;Samples;Min_cycle;Max_cycle;Signal;HPM_P1;HPM_P2
2022/04/25 00:01:39;;;;;;;14.95;10.40;;;9.80;99.90;;;;;;5077776;28;20390;-73
2022/04/25 00:04:05;;;;;;;16.15;11.60;;;9.80;99.90;;;;;;5060987;28;20016;-73
2022/04/25 00:06:31;;;;;;;17.75;11.65;;;9.90;99.90;;;;;;5095834;28;20028;-73
2022/04/25 00:08:56;;;;;;;15.10;11.27;;;9.90;99.90;;;;;;5095692;28;20039;-73
2022/04/25 00:11:22;;;;;;;15.50;11.32;;;9.80;99.90;;;;;;5095777;28;20030;-73
2022/04/25 00:13:48;;;;;;;18.08;10.85;;;9.90;99.90;;;;;;5095576;28;20112;-73
2022/04/25 00:16:13;;;;;;;16.67;12.07;;;9.90;99.90;;;;;;5095520;28;20073;-73
2022/04/25 00:18:39;;;;;;;17.75;12.07;;;9.90;99.90;;;;;;5077052;28;20024;-73
2022/04/25 00:21:05;;;;;;;17.40;11.10;;;9.80;99.90;;;;;;5095423;28;20535;-73
2022/04/25 00:23:31;;;;;;;17.08;11.95;;;9.90;99.90;;;;;;5095548;28;20024;-73
2022/04/25 00:25:56;;;;;;;19.30;13.07;;;9.90;99.90;;;;;;5095266;28;20016;-73
2022/04/25 00:28:22;;;;;;;16.80;12.23;;;9.80;99.90;;;;;;5095284;28;20103;-73
2022/04/25 00:30:47;;;;;;;17.52;12.00;;;9.90;99.90;;;;;;5095230;28;20032;-73
2022/04/25 00:33:14;;;;;;;18.85;12.57;;;9.80;99.90;;;;;;5095194;28;20116;-73
2022/04/25 00:35:40;;;;;;;20.48;13.43;;;9.80;99.90;;;;;;5095116;28;20024;-73
2022/04/25 00:38:06;;;;;;;19.20;13.38;;;9.80;99.90;;;;;;5060216;28;20093;-73
2022/04/25 00:40:32;;;;;;;18.30;12.75;;;9.70;99.90;;;;;;5077031;28;20025;-73
2022/04/25 00:42:57;;;;;;;22.67;13.98;;;9.60;99.90;;;;;;5095050;28;20071;-73
2022/04/25 00:45:23;;;;;;;22.00;13.93;;;9.60;99.90;;;;;;5076902;28;20069;-73
2022/04/25 00:47:48;;;;;;;22.85;15.23;;;9.60;99.90;;;;;;5094867;28;20120;-73
2022/04/25 00:50:14;;;;;;;22.25;14.32;;;9.50;99.90;;;;;;5094851;28;20393;-73
2022/04/25 00:52:40;;;;;;;22.73;15.18;;;9.50;99.90;;;;;;5094792;28;20060;-73
2022/04/25 00:55:09;;;;;;;23.08;14.60;;;9.50;99.90;;;;;;5076658;28;20111;-73
2022/04/25 00:57:36;;;;;;;21.85;15.15;;;9.50;99.90;;;;;;5094742;28;20028;-73
2022/04/25 01:00:05;;;;;;;19.80;14.60;;;9.50;99.90;;;;;;5076384;28;20024;-73
2022/04/25 01:02:30;;;;;;;23.25;14.13;;;9.50;99.90;;;;;;5094736;28;20398;-73
2022/04/25 01:04:56;;;;;;;21.15;13.85;;;9.50;99.90;;;;;;5094534;28;20017;-73
2022/04/25 01:07:22;;;;;;;19.10;12.50;;;9.40;99.90;;;;;;5093366;28;20475;-73
2022/04/25 01:09:47;;;;;;;17.52;12.07;;;9.30;99.90;;;;;;5076365;28;20146;-73
2022/04/25 01:12:13;;;;;;;14.45;11.45;;;9.30;99.90;;;;;;5094388;28;20028;-73
2022/04/25 01:14:39;;;;;;;17.17;10.90;;;9.30;99.90;;;;;;5076310;28;20471;-73
2022/04/25 01:17:05;;;;;;;14.45;10.88;;;9.30;99.90;;;;;;5094278;28;20028;-73
2022/04/25 01:19:31;;;;;;;12.95;9.50;;;9.30;99.90;;;;;;5072455;28;20437;-73
2022/04/25 01:21:59;;;;;;;10.85;8.57;;;9.30;99.90;;;;;;5072741;28;20070;-73
2022/04/25 01:27:15;;;;;;;11.95;8.82;;;9.30;99.90;;;;;;5072636;28;20036;-73
2022/04/25 01:29:45;;;;;;;11.65;8.25;;;9.30;99.90;;;;;;5073778;28;20020;-73
2022/04/25 01:32:11;;;;;;;12.55;7.55;;;9.30;99.90;;;;;;5072448;28;20024;-73
2022/04/25 01:34:37;;;;;;;9.65;7.30;;;9.30;99.90;;;;;;5073762;28;20154;-73
2022/04/25 01:37:05;;;;;;;9.88;8.02;;;9.30;99.90;;;;;;5073810;28;20428;-73
2022/04/25 01:39:33;;;;;;;9.82;7.55;;;9.30;99.90;;;;;;5073678;28;20024;-73
2022/04/25 01:41:58;;;;;;;9.35;7.35;;;9.20;99.90;;;;;;5073682;28;20021;-73
2022/04/25 01:44:24;;;;;;;9.00;6.80;;;9.20;99.90;;;;;;5072282;28;20051;-73
2022/04/25 01:46:49;;;;;;;10.65;7.55;;;9.10;99.90;;;;;;5072327;28;20023;-73
2022/04/25 01:49:15;;;;;;;8.68;7.38;;;9.00;99.90;;;;;;5073111;28;20364;-73
2022/04/25 01:51:40;;;;;;;10.90;7.78;;;9.00;99.90;;;;;;5072096;28;20111;-73
2022/04/25 01:54:06;;;;;;;11.40;8.38;;;9.00;99.90;;;;;;5073403;28;20055;-73
2022/04/25 01:56:32;;;;;;;10.90;8.45;;;8.90;99.90;;;;;;5073384;28;20100;-73
2022/04/25 01:58:57;;;;;;;10.13;7.88;;;8.90;99.90;;;;;;5072064;28;20040;-73
2022/04/25 02:01:23;;;;;;;9.30;7.60;;;8.90;99.90;;;;;;5072002;28;20450;-73
2022/04/25 02:03:48;;;;;;;10.68;7.55;;;8.80;99.90;;;;;;5073305;28;20065;-73
2022/04/25 02:06:14;;;;;;;8.75;7.35;;;8.90;99.90;;;;;;5072054;28;20037;-73
2022/04/25 02:08:39;;;;;;;10.25;8.25;;;8.90;99.90;;;;;;5055303;28;20420;-73
2022/04/25 02:11:20;;;;;;;9.15;7.28;;;8.90;99.90;;;;;;5072105;28;20081;-72
2022/04/25 02:13:46;;;;;;;10.43;8.38;;;8.90;99.90;;;;;;5072190;28;20028;-73
2022/04/25 02:16:12;;;;;;;11.07;8.73;;;8.80;99.90;;;;;;5073191;28;20028;-73
2022/04/25 02:18:40;;;;;;;10.48;8.35;;;8.80;99.90;;;;;;5073441;28;20032;-73
2022/04/25 02:21:06;;;;;;;11.35;8.70;;;8.80;99.90;;;;;;5093248;28;20078;-73
2022/04/25 02:23:32;;;;;;;10.52;8.75;;;8.80;99.90;;;;;;5093354;28;20059;-73
2022/04/25 02:25:57;;;;;;;8.98;7.65;;;8.80;99.90;;;;;;5093238;28;20017;-73
2022/04/25 02:28:23;;;;;;;11.07;7.75;;;8.80;99.90;;;;;;5093214;28;20092;-73
2022/04/25 02:30:51;;;;;;;10.07;8.30;;;8.70;99.90;;;;;;5108828;28;20024;-73
2022/04/25 02:33:18;;;;;;;8.77;7.85;;;8.70;99.90;;;;;;5075551;28;20046;-73
2022/04/25 02:35:43;;;;;;;9.80;8.48;;;8.60;99.90;;;;;;5093148;28;20107;-73
2022/04/25 02:38:09;;;;;;;9.18;7.40;;;8.60;99.90;;;;;;5093609;28;20059;-73
2022/04/25 02:40:34;;;;;;;9.05;7.55;;;8.60;99.90;;;;;;5075007;28;20028;-72
2022/04/25 02:43:00;;;;;;;8.35;7.18;;;8.60;99.90;;;;;;5075119;28;20032;-73
2022/04/25 02:45:25;;;;;;;7.90;6.60;;;8.60;99.90;;;;;;5093084;28;20467;-73
2022/04/25 02:47:51;;;;;;;10.57;7.32;;;8.60;99.90;;;;;;5093075;28;20020;-73
2022/04/25 02:50:17;;;;;;;11.93;7.57;;;8.60;99.90;;;;;;5075134;28;20416;-73
2022/04/25 02:52:43;;;;;;;8.95;6.88;;;8.60;99.90;;;;;;5093074;28;20478;-73
2022/04/25 02:55:09;;;;;;;10.05;6.88;;;8.50;99.90;;;;;;5093008;28;20051;-73
2022/04/25 02:57:35;;;;;;;9.93;7.15;;;8.40;99.90;;;;;;5075073;28;20027;-73
2022/04/25 03:00:01;;;;;;;8.57;6.55;;;8.40;99.90;;;;;;5074939;28;20024;-73
2022/04/25 03:02:27;;;;;;;11.30;6.80;;;8.40;99.90;;;;;;5110403;28;20024;-73
2022/04/25 03:04:52;;;;;;;7.15;5.95;;;8.30;99.90;;;;;;5096893;28;20028;-73
2022/04/25 03:07:18;;;;;;;7.72;6.47;;;8.30;99.90;;;;;;5112492;28;20016;-73
2022/04/25 03:09:43;;;;;;;8.52;6.72;;;8.30;99.90;;;;;;5096816;28;20031;-73
2022/04/25 03:12:09;;;;;;;9.13;6.28;;;8.20;99.90;;;;;;5096706;28;20364;-72
2022/04/25 03:14:35;;;;;;;8.77;7.28;;;8.10;99.90;;;;;;5078692;28;20078;-73
2022/04/25 03:17:02;;;;;;;8.35;6.72;;;8.00;99.90;;;;;;5096735;28;20382;-73
2022/04/25 03:19:27;;;;;;;8.88;6.78;;;7.90;99.90;;;;;;5096283;28;20047;-73
2022/04/25 03:21:53;;;;;;;11.10;8.10;;;7.90;99.90;;;;;;5112215;28;20020;-73
2022/04/25 03:24:18;;;;;;;8.82;7.30;;;7.80;99.90;;;;;;5096481;28;20098;-73
2022/04/25 03:26:44;;;;;;;10.63;7.38;;;7.80;99.90;;;;;;5078405;28;20028;-72
2022/04/25 03:29:10;;;;;;;11.23;7.95;;;7.80;99.90;;;;;;5096414;28;20017;-72
2022/04/25 03:31:36;;;;;;;11.57;8.63;;;7.70;99.90;;;;;;5112044;28;20111;-73
2022/04/25 03:34:02;;;;;;;12.15;8.85;;;7.80;99.90;;;;;;5096374;28;20107;-72
2022/04/25 03:36:28;;;;;;;10.65;8.65;;;7.70;99.90;;;;;;5096176;28;20028;-72
2022/04/25 03:38:53;;;;;;;12.93;9.18;;;7.70;99.90;;;;;;5078235;28;20617;-72
2022/04/25 03:41:20;;;;;;;14.63;10.05;;;7.70;99.90;;;;;;5096065;28;20059;-72
2022/04/25 03:43:46;;;;;;;12.00;9.13;;;7.70;99.90;;;;;;5096145;28;20096;-72
2022/04/25 03:46:12;;;;;;;10.88;8.88;;;7.70;99.90;;;;;;5061238;28;20109;-72
2022/04/25 03:48:41;;;;;;;12.23;9.20;;;7.60;99.90;;;;;;5111722;28;20060;-72
2022/04/25 03:51:07;;;;;;;14.23;9.60;;;7.60;99.90;;;;;;5078331;28;20426;-72
2022/04/25 03:53:32;;;;;;;12.55;8.70;;;7.50;99.90;;;;;;5077916;28;20024;-72
2022/04/25 03:58:43;;;;;;;12.75;8.63;;;7.60;99.90;;;;;;5080578;28;20062;-72
2022/04/25 04:01:09;;;;;;;10.52;8.50;;;7.60;99.90;;;;;;5077739;28;20063;-72
2022/04/25 04:03:35;;;;;;;13.07;9.75;;;7.60;99.90;;;;;;5095834;28;20478;-73
2022/04/25 04:06:00;;;;;;;10.90;8.73;;;7.50;99.90;;;;;;5095594;28;20020;-72
2022/04/25 04:08:26;;;;;;;12.05;8.48;;;7.50;99.90;;;;;;5077596;28;20107;-72
2022/04/25 04:10:51;;;;;;;11.50;8.13;;;7.60;99.90;;;;;;5095579;28;20032;-73
2022/04/25 04:13:17;;;;;;;10.40;8.50;;;7.50;99.90;;;;;;5095186;28;20447;-72
2022/04/25 04:15:43;;;;;;;12.77;9.15;;;7.60;99.90;;;;;;5077515;28;20418;-72
2022/04/25 04:18:09;;;;;;;13.88;10.00;;;7.60;99.90;;;;;;5095521;28;20047;-72
2022/04/25 04:20:35;;;;;;;17.00;10.57;;;7.60;99.90;;;;;;5095219;28;20036;-72
2022/04/25 04:23:01;;;;;;;14.45;9.82;;;7.60;99.90;;;;;;5095330;28;20033;-73
2022/04/25 04:25:27;;;;;;;13.73;10.27;;;7.60;99.90;;;;;;5095298;28;20016;-72
2022/04/25 04:27:52;;;;;;;13.50;10.13;;;7.60;99.90;;;;;;5095210;28;20047;-72
2022/04/25 04:30:18;;;;;;;13.90;10.88;;;7.70;99.90;;;;;;5077225;28;20035;-72
2022/04/25 04:32:44;;;;;;;14.02;10.35;;;7.70;99.90;;;;;;5077062;28;20497;-72
2022/04/25 04:35:12;;;;;;;16.25;10.95;;;7.80;99.90;;;;;;5095237;28;20095;-72
2022/04/25 04:37:39;;;;;;;14.35;10.77;;;7.80;99.90;;;;;;5095077;28;20539;-72
2022/04/25 04:40:38;;;;;;;14.48;10.57;;;7.80;99.90;;;;;;5094954;28;20081;-72
2022/04/25 04:42:53;;;;;;;15.45;10.50;;;7.80;99.90;;;;;;5094772;28;20382;-72
2022/04/25 04:45:19;;;;;;;16.95;10.77;;;8.00;99.90;;;;;;5076980;28;20077;-72
2022/04/25 04:47:44;;;;;;;12.63;10.00;;;8.00;99.90;;;;;;5094911;28;20020;-72
2022/04/25 04:50:14;;;;;;;12.85;10.18;;;8.00;99.90;;;;;;5094850;28;20052;-73
2022/04/25 04:52:45;;;;;;;13.25;9.30;;;8.10;99.90;;;;;;5094760;28;20024;-72
2022/04/25 04:55:11;;;;;;;15.00;9.80;;;8.10;99.90;;;;;;5094783;28;20024;-72
2022/04/25 04:57:38;;;;;;;12.40;10.40;;;8.10;99.90;;;;;;5094716;28;20103;-72
2022/04/25 05:00:06;;;;;;;12.65;9.32;;;8.20;99.90;;;;;;5094615;28;20036;-72
2022/04/25 05:02:32;;;;;;;13.73;10.00;;;8.30;99.90;;;;;;5094625;28;20012;-72
2022/04/25 05:04:57;;;;;;;13.93;9.57;;;8.30;99.90;;;;;;5094545;28;20016;-72
2022/04/25 05:07:23;;;;;;;12.35;9.02;;;8.50;99.90;;;;;;5094441;28;20031;-72
2022/04/25 05:09:48;;;;;;;14.95;10.10;;;8.50;99.90;;;;;;5076277;28;20028;-73
2022/04/25 05:12:14;;;;;;;13.10;9.75;;;8.40;99.90;;;;;;5076363;28;20031;-72
2022/04/25 05:14:40;;;;;;;15.02;10.15;;;8.50;99.90;;;;;;5076379;28;20036;-72
2022/04/25 05:17:05;;;;;;;14.68;9.43;;;8.60;99.90;;;;;;5094417;28;20035;-72
2022/04/25 05:19:31;;;;;;;11.80;9.43;;;8.60;99.90;;;;;;5093890;28;20044;-73
2022/04/25 05:21:57;;;;;;;12.13;9.25;;;8.70;99.90;;;;;;5076120;28;20506;-72
2022/04/25 05:24:22;;;;;;;12.10;9.30;;;8.80;99.90;;;;;;5075458;28;20471;-73
2022/04/25 05:26:48;;;;;;;17.58;9.32;;;8.80;99.90;;;;;;5094074;28;20028;-72
2022/04/25 05:29:15;;;;;;;13.20;8.90;;;9.00;99.90;;;;;;5093993;28;20020;-73
2022/04/25 05:31:40;;;;;;;12.32;9.80;;;9.00;99.90;;;;;;5094028;28;20059;-72
2022/04/25 05:34:06;;;;;;;14.02;9.57;;;9.10;99.90;;;;;;5075986;28;20048;-73
2022/04/25 05:36:32;;;;;;;13.77;10.40;;;9.20;99.90;;;;;;5093990;28;20016;-73
2022/04/25 05:38:57;;;;;;;12.90;9.98;;;9.20;99.90;;;;;;5075854;28;20436;-73
2022/04/25 05:41:23;;;;;;;18.15;12.23;;;9.20;99.90;;;;;;5093809;28;20494;-72
2022/04/25 05:43:49;;;;;;;18.20;12.90;;;9.20;99.90;;;;;;5093812;28;20028;-72
2022/04/25 05:46:14;;;;;;;21.40;13.63;;;9.10;99.90;;;;;;5075255;28;20039;-72
2022/04/25 05:54:12;;;;;;;18.98;13.35;;;9.30;99.90;;;;;;5093292;28;20444;-72
2022/04/25 05:56:39;;;;;;;18.13;13.85;;;9.30;99.90;;;;;;5075697;28;20020;-73
2022/04/25 05:59:04;;;;;;;21.50;14.27;;;9.30;99.90;;;;;;5093630;28;20024;-72
2022/04/25 06:01:30;;;;;;;22.30;15.10;;;9.20;99.90;;;;;;5093473;28;20035;-73
2022/04/25 06:03:55;;;;;;;22.08;15.70;;;9.30;99.90;;;;;;5058641;28;20470;-73
2022/04/25 06:06:23;;;;;;;21.95;15.02;;;9.50;99.90;;;;;;5075373;28;20024;-73
2022/04/25 06:08:49;;;;;;;21.13;14.55;;;9.60;99.90;;;;;;5093251;28;20052;-73
2022/04/25 06:11:15;;;;;;;24.90;15.93;;;9.60;99.90;;;;;;5093262;28;20056;-73
2022/04/25 06:13:44;;;;;;;22.02;15.65;;;9.70;99.90;;;;;;5093300;28;20032;-73
2022/04/25 06:16:11;;;;;;;25.52;16.25;;;9.90;99.90;;;;;;5093315;28;20020;-73
2022/04/25 06:18:36;;;;;;;25.25;16.42;;;9.90;99.90;;;;;;5074905;28;20124;-73
2022/04/25 06:21:02;;;;;;;24.65;17.42;;;9.70;99.90;;;;;;5093140;28;20072;-73
2022/04/25 06:23:27;;;;;;;24.40;17.60;;;9.70;99.90;;;;;;5093098;28;20478;-73
2022/04/25 06:25:53;;;;;;;24.90;16.77;;;9.70;99.90;;;;;;5093149;28;20028;-72
2022/04/25 06:28:18;;;;;;;27.08;17.92;;;10.00;99.90;;;;;;5075613;28;20482;-72
2022/04/25 06:30:44;;;;;;;23.88;17.65;;;9.90;99.90;;;;;;5075753;28;20473;-72
2022/04/25 06:33:10;;;;;;;23.52;16.60;;;10.00;99.90;;;;;;5093932;28;20474;-72
2022/04/25 06:35:36;;;;;;;29.17;17.65;;;10.20;99.90;;;;;;5103354;28;20020;-73
2022/04/25 06:38:02;;;;;;;26.40;17.42;;;10.10;99.90;;;;;;5117048;28;20048;-72
2022/04/25 06:40:27;;;;;;;26.20;18.55;;;10.00;99.90;;;;;;5105463;28;20028;-68
2022/04/25 06:42:53;;;;;;;26.02;18.65;;;10.00;99.90;;;;;;5090525;28;20032;-73
2022/04/25 06:45:19;;;;;;;25.48;19.08;;;10.00;99.90;;;;;;5117136;28;20027;-73
2022/04/25 06:47:45;;;;;;;25.42;18.25;;;9.80;99.90;;;;;;5116168;28;20389;-73
2022/04/25 06:50:11;;;;;;;27.20;18.20;;;9.70;99.90;;;;;;5115473;28;20422;-73
2022/04/25 06:52:36;;;;;;;29.50;19.77;;;9.80;99.90;;;;;;5076752;28;20017;-73
2022/04/25 06:55:04;;;;;;;30.08;20.45;;;9.80;99.90;;;;;;5058734;28;20103;-73
2022/04/25 06:57:33;;;;;;;37.38;25.20;;;9.70;99.90;;;;;;5114455;28;20117;-73
2022/04/25 06:59:59;;;;;;;37.65;25.45;;;9.90;99.90;;;;;;5117144;28;20405;-73
2022/04/25 07:02:25;;;;;;;32.03;24.13;;;9.90;99.90;;;;;;5097550;28;20043;-73
2022/04/25 07:04:50;;;;;;;30.80;21.23;;;9.80;99.90;;;;;;5100480;28;20032;-73
2022/04/25 07:07:17;;;;;;;25.98;19.92;;;9.90;99.90;;;;;;5096674;28;20032;-73
2022/04/25 07:09:43;;;;;;;26.67;19.15;;;9.90;99.90;;;;;;5103870;28;20060;-73
2022/04/25 07:12:09;;;;;;;26.60;19.92;;;9.80;99.90;;;;;;5115233;28;20027;-73
2022/04/25 07:14:34;;;;;;;28.85;19.27;;;9.80;99.90;;;;;;5092582;28;20501;-73
2022/04/25 07:17:02;;;;;;;27.60;19.98;;;9.90;99.90;;;;;;5095356;28;20050;-73
2022/04/25 07:19:28;;;;;;;27.38;19.20;;;9.90;99.90;;;;;;5087535;28;20036;-73
2022/04/25 07:30:10;;;;;;;28.42;20.27;;;10.30;99.90;;;;;;5093550;28;20028;-73
2022/04/25 07:32:39;;;;;;;29.45;21.50;;;10.40;99.90;;;;;;5096466;28;20027;-73
2022/04/25 07:35:06;;;;;;;32.50;21.20;;;10.10;99.90;;;;;;5080291;28;20498;-71
2022/04/25 07:37:33;;;;;;;34.88;22.13;;;10.10;99.90;;;;;;5090275;28;20055;-71
2022/04/25 07:40:09;;;;;;;28.70;21.77;;;10.00;99.90;;;;;;5076864;28;20030;-71
2022/04/25 07:42:36;;;;;;;29.48;21.20;;;9.90;99.90;;;;;;5074709;28;20486;-72
2022/04/25 07:45:03;;;;;;;28.92;20.67;;;9.90;99.90;;;;;;5076593;28;20020;-72
2022/04/25 07:47:28;;;;;;;33.25;22.10;;;9.90;99.90;;;;;;5055719;28;20483;-71
2022/04/25 07:49:54;;;;;;;29.73;22.05;;;10.10;99.90;;;;;;5095764;28;20103;-72
2022/04/25 07:52:19;;;;;;;27.65;20.48;;;10.30;99.90;;;;;;5095811;28;20470;-73
2022/04/25 07:54:45;;;;;;;28.60;21.05;;;10.60;99.90;;;;;;5079030;28;20028;-72
2022/04/25 07:57:10;;;;;;;29.85;21.23;;;10.50;99.90;;;;;;5086733;28;20443;-73
2022/04/25 07:59:36;;;;;;;31.40;23.13;;;10.60;99.90;;;;;;5075475;28;20445;-73
2022/04/25 08:02:02;;;;;;;30.98;21.85;;;10.60;99.90;;;;;;5090867;28;20063;-72
2022/04/25 08:04:29;;;;;;;30.95;20.48;;;10.70;99.90;;;;;;5095606;28;20478;-72
2022/04/25 08:06:55;;;;;;;27.52;20.35;;;10.70;99.90;;;;;;5094021;28;20109;-72
2022/04/25 08:09:20;;;;;;;30.50;21.17;;;10.50;99.90;;;;;;5076355;28;20490;-72
2022/04/25 08:11:46;;;;;;;30.45;20.55;;;10.30;99.90;;;;;;5086319;28;20112;-72
2022/04/25 08:19:42;;;;;;;28.10;19.77;;;10.20;99.90;;;;;;5097932;28;20082;-74
2022/04/25 08:22:09;;;;;;;30.98;20.95;;;10.30;99.90;;;;;;5097527;28;20023;-73
2022/04/25 08:24:36;;;;;;;32.55;20.92;;;10.30;99.90;;;;;;5095534;28;20080;-73
2022/04/25 08:27:03;;;;;;;26.70;20.17;;;10.40;99.90;;;;;;5114254;28;20106;-73
2022/04/25 08:29:29;;;;;;;32.58;20.38;;;10.30;99.90;;;;;;5095064;28;20038;-73
2022/04/25 08:31:54;;;;;;;30.25;21.63;;;10.30;99.90;;;;;;5077066;28;20020;-73
2022/04/25 08:34:20;;;;;;;31.30;21.13;;;10.30;99.90;;;;;;5096304;28;20037;-73
2022/04/25 08:36:46;;;;;;;32.03;20.85;;;10.10;99.90;;;;;;5115315;28;20019;-73
2022/04/25 08:39:11;;;;;;;29.67;19.88;;;10.10;99.90;;;;;;5078698;28;20028;-72
2022/04/25 08:41:48;;;;;;;27.05;20.08;;;10.10;99.90;;;;;;5076920;28;20504;-73
2022/04/25 08:44:18;;;;;;;28.13;19.63;;;10.10;99.90;;;;;;5095234;28;20427;-73
2022/04/25 08:46:49;;;;;;;25.05;18.27;;;10.20;99.90;;;;;;5097423;28;20016;-73
2022/04/25 08:49:16;;;;;;;27.08;18.33;;;10.30;99.90;;;;;;5100187;28;20020;-72
2022/04/25 08:51:42;;;;;;;24.40;16.02;;;10.30;99.90;;;;;;5104218;28;20106;-72
2022/04/25 08:54:08;;;;;;;22.52;15.65;;;10.30;99.90;;;;;;5059875;28;20112;-72
2022/04/25 08:56:36;;;;;;;22.95;15.98;;;10.30;99.90;;;;;;5104361;28;20016;-72
2022/04/25 08:59:05;;;;;;;21.67;15.60;;;10.40;99.90;;;;;;5094663;28;20020;-72
2022/04/25 09:01:31;;;;;;;20.25;14.07;;;10.50;99.90;;;;;;5094049;28;20402;-74
2022/04/25 09:03:56;;;;;;;18.13;13.50;;;10.50;99.90;;;;;;5076154;28;20031;-71
2022/04/25 09:06:22;;;;;;;20.08;13.05;;;10.60;99.90;;;;;;5112689;28;20612;-72
2022/04/25 09:08:47;;;;;;;18.48;13.85;;;10.90;99.90;;;;;;5112987;28;20036;-72
2022/04/25 09:13:59;;;;;;;19.45;14.52;;;11.40;99.90;;;;;;5104132;28;20065;-73
2022/04/25 09:16:24;;;;;;;20.25;14.23;;;11.90;99.90;;;;;;5096280;28;20172;-73
2022/04/25 09:18:50;;;;;;;20.38;12.23;;;12.30;99.90;;;;;;5105318;28;20041;-73
2022/04/25 09:21:15;;;;;;;15.07;12.00;;;12.60;99.90;;;;;;5078068;28;20024;-72
2022/04/25 09:23:42;;;;;;;14.30;10.80;;;12.90;99.90;;;;;;5093897;28;20039;-72
2022/04/25 09:26:09;;;;;;;15.18;11.25;;;12.80;99.90;;;;;;5055951;28;20056;-72
2022/04/25 09:28:46;;;;;;;12.15;10.27;;;12.50;99.90;;;;;;5073628;28;20066;-72
2022/04/25 09:31:14;;;;;;;11.63;10.40;;;12.00;99.90;;;;;;5091352;28;20031;-72
2022/04/25 09:33:39;;;;;;;12.13;10.50;;;11.60;99.90;;;;;;5096140;28;20035;-72
2022/04/25 09:36:06;;;;;;;13.35;10.10;;;11.40;99.90;;;;;;5097484;28;20497;-73
2022/04/25 09:38:34;;;;;;;13.75;9.93;;;11.20;99.90;;;;;;5093756;28;20453;-73
2022/04/25 09:41:01;;;;;;;11.40;9.35;;;11.30;99.90;;;;;;5091432;28;20027;-73
2022/04/25 09:43:31;;;;;;;13.02;9.27;;;11.30;99.90;;;;;;5114043;28;20139;-73
2022/04/25 09:46:02;;;;;;;12.55;9.95;;;11.50;99.90;;;;;;5080741;28;20024;-73
2022/04/25 09:48:28;;;;;;;14.90;11.18;;;11.70;99.90;;;;;;5093531;28;20049;-72
2022/04/25 09:51:02;;;;;;;16.30;10.55;;;11.70;99.90;;;;;;5089844;28;20034;-72
2022/04/25 09:53:55;;;;;;;13.05;10.77;;;11.60;99.90;;;;;;5095670;28;20114;-72
2022/04/25 09:56:26;;;;;;;13.73;10.88;;;11.50;99.90;;;;;;5056999;28;20054;-73
2022/04/25 09:59:09;;;;;;;14.98;10.93;;;11.60;99.90;;;;;;5060021;28;20391;-73
2022/04/25 10:01:36;;;;;;;14.00;10.70;;;11.50;99.90;;;;;;5095795;28;20088;-73
2022/04/25 10:04:05;;;;;;;13.60;10.65;;;11.60;99.90;;;;;;5110491;28;20028;-73
2022/04/25 10:06:32;;;;;;;13.23;10.48;;;11.50;99.90;;;;;;5093373;28;20043;-73
2022/04/25 10:09:00;;;;;;;14.60;11.05;;;11.80;99.90;;;;;;5095008;28;20024;-73
2022/04/25 10:11:31;;;;;;;15.15;10.60;;;12.00;99.90;;;;;;5112949;28;20027;-73
2022/04/25 10:13:57;;;;;;;13.93;10.85;;;12.30;99.90;;;;;;5112066;28;20031;-73
2022/04/25 10:16:24;;;;;;;17.65;11.27;;;12.50;99.90;;;;;;5075260;28;20028;-73
2022/04/25 10:18:51;;;;;;;15.10;12.13;;;12.50;99.90;;;;;;5092978;28;20032;-72
2022/04/25 10:21:17;;;;;;;14.05;11.90;;;12.50;99.90;;;;;;5093807;28;20067;-73
2022/04/25 10:23:44;;;;;;;18.38;11.93;;;12.60;99.90;;;;;;5095624;28;20030;-73
2022/04/25 10:26:09;;;;;;;18.10;12.98;;;12.50;99.90;;;;;;5093738;28;20460;-73
2022/04/25 10:28:43;;;;;;;15.30;12.48;;;12.60;99.90;;;;;;5093117;28;20027;-72
2022/04/25 10:31:14;;;;;;;14.80;12.23;;;12.50;99.90;;;;;;5104733;28;20024;-73
2022/04/25 10:33:52;;;;;;;17.40;12.88;;;12.30;99.90;;;;;;5082929;28;20032;-73
2022/04/25 10:39:23;;;;;;;15.82;14.13;;;12.20;99.90;;;;;;5101464;27;20401;-73
2022/04/25 10:47:17;;;;;;;16.10;13.20;;;12.30;99.90;;;;;;5084895;27;20497;-73
2022/04/25 10:49:57;;;;;;;15.80;12.52;;;12.50;99.90;;;;;;5082395;28;20029;-72
2022/04/25 10:52:53;;;;;;;16.55;12.75;;;12.30;99.90;;;;;;5050492;28;20480;-73
2022/04/25 10:55:38;;;;;;;20.00;13.68;;;12.20;99.90;;;;;;5050014;28;20025;-72
2022/04/25 10:58:09;;;;;;;18.85;14.48;;;12.10;99.90;;;;;;5062852;28;20491;-72
2022/04/25 11:03:16;;;;;;;17.80;14.20;;;12.10;99.90;;;;;;5119307;27;20131;-73
2022/04/25 11:05:45;;;;;;;19.77;14.77;;;12.10;99.90;;;;;;5109693;28;20016;-72
2022/04/25 11:11:02;;;;;;;15.70;13.27;;;12.40;99.90;;;;;;5122288;27;20571;-72
2022/04/25 11:13:31;;;;;;;18.58;13.50;;;12.30;99.90;;;;;;5109727;28;20470;-73
2022/04/25 11:16:14;;;;;;;17.58;13.77;;;12.50;99.90;;;;;;5109821;28;20024;-73
2022/04/25 11:18:41;;;;;;;19.25;13.27;;;12.40;99.90;;;;;;5090643;28;20552;-73
2022/04/25 11:21:13;;;;;;;17.13;13.15;;;12.50;99.90;;;;;;5100811;28;20107;-73
2022/04/25 11:23:53;;;;;;;15.88;12.25;;;12.70;99.90;;;;;;5097337;28;20020;-72
2022/04/25 11:31:34;;;;;;;15.48;11.60;;;12.70;99.90;;;;;;5126170;27;20137;-72
2022/04/25 11:34:03;;;;;;;15.32;12.85;;;12.50;99.90;;;;;;5101615;28;20027;-72
2022/04/25 11:36:30;;;;;;;15.02;11.95;;;12.40;99.90;;;;;;5111149;28;20012;-72
2022/04/25 11:41:45;;;;;;;13.27;10.25;;;12.30;99.90;;;;;;5090381;28;20025;-72
2022/04/25 11:44:10;;;;;;;13.10;9.93;;;12.40;99.90;;;;;;5090354;28;20475;-72
2022/04/25 11:46:37;;;;;;;13.13;10.10;;;12.20;99.90;;;;;;5089427;28;20086;-73
2022/04/25 11:49:05;;;;;;;8.93;7.80;;;12.30;99.90;;;;;;5089487;28;20017;-73
2022/04/25 11:51:34;;;;;;;11.52;8.50;;;12.20;99.90;;;;;;5089436;28;20474;-73
2022/04/25 11:54:04;;;;;;;12.40;9.10;;;11.90;99.90;;;;;;5088734;28;20493;-73
2022/04/25 11:56:32;;;;;;;12.32;9.93;;;11.90;99.90;;;;;;5094424;28;20028;-73
2022/04/25 11:58:59;;;;;;;10.18;9.05;;;12.00;99.90;;;;;;5109051;28;20024;-73
2022/04/25 12:01:33;;;;;;;10.65;8.95;;;12.10;99.90;;;;;;5105537;28;20123;-73
2022/04/25 12:07:08;;;;;;;13.13;10.02;;;12.20;99.90;;;;;;5126232;27;20137;-72
2022/04/25 12:15:52;;;;;;;11.95;9.43;;;12.40;99.90;;;;;;5109612;28;20026;-72
2022/04/25 12:18:25;;;;;;;10.32;8.27;;;12.70;99.90;;;;;;5094353;28;20032;-72
2022/04/25 12:21:00;;;;;;;11.30;9.35;;;12.70;99.90;;;;;;5109453;28;20019;-72
2022/04/25 12:23:29;;;;;;;12.35;10.57;;;12.70;99.90;;;;;;5092274;28;20047;-72
2022/04/25 12:25:55;;;;;;;14.05;10.18;;;12.70;99.90;;;;;;5096720;28;20032;-72
2022/04/25 12:28:23;;;;;;;13.75;10.80;;;12.70;99.90;;;;;;5094555;28;20016;-72
2022/04/25 12:33:38;;;;;;;14.02;10.68;;;12.60;99.90;;;;;;5091624;27;20142;-72
2022/04/25 12:36:23;;;;;;;12.73;10.27;;;12.50;99.90;;;;;;5082155;28;20054;-72
2022/04/25 12:38:56;;;;;;;12.80;10.10;;;12.50;99.90;;;;;;5070241;28;20025;-72
2022/04/25 12:41:25;;;;;;;12.13;9.85;;;12.50;99.90;;;;;;5067936;28;20021;-73
2022/04/25 12:43:54;;;;;;;13.50;11.88;;;12.80;99.90;;;;;;5065530;28;20496;-72
2022/04/25 12:46:44;;;;;;;14.48;12.07;;;13.10;99.90;;;;;;5051390;28;20087;-72
2022/04/25 12:49:12;;;;;;;15.15;13.00;;;13.30;99.90;;;;;;5070129;28;20033;-73
2022/04/25 12:51:58;;;;;;;15.60;12.82;;;13.40;99.90;;;;;;5065183;28;20035;-72
2022/04/25 12:54:30;;;;;;;14.13;12.63;;;13.30;99.90;;;;;;5050164;28;20029;-73
2022/04/25 12:57:20;;;;;;;15.50;13.55;;;13.50;99.90;;;;;;5081974;28;20382;-73
2022/04/25 12:59:58;;;;;;;16.55;13.93;;;13.30;99.90;;;;;;5050019;28;20438;-72
2022/04/25 13:05:09;;;;;;;11.35;9.98;;;14.20;99.90;;;;;;5123600;27;20140;-73
2022/04/25 13:07:45;;;;;;;11.30;9.50;;;14.00;99.90;;;;;;5102613;28;20401;-73
2022/04/25 13:10:14;;;;;;;10.95;8.07;;;14.20;99.90;;;;;;5092534;28;20023;-72
2022/04/25 13:12:43;;;;;;;10.45;9.10;;;14.20;99.90;;;;;;5095155;28;20032;-73
2022/04/25 13:15:15;;;;;;;10.73;9.32;;;14.20;99.90;;;;;;5089163;28;20028;-73
2022/04/25 13:17:41;;;;;;;11.48;10.27;;;13.80;99.90;;;;;;5103740;28;20031;-72
2022/04/25 13:20:09;;;;;;;12.25;9.65;;;13.50;99.90;;;;;;5091639;28;20032;-73
2022/04/25 13:22:36;;;;;;;10.70;9.25;;;13.60;99.90;;;;;;5102424;28;20110;-73
2022/04/25 13:25:02;;;;;;;11.52;9.45;;;13.50;99.90;;;;;;5109343;28;20074;-73
2022/04/25 13:27:29;;;;;;;11.07;9.50;;;13.70;99.90;;;;;;5098591;28;20027;-72
2022/04/25 13:29:55;;;;;;;10.98;8.80;;;13.80;99.90;;;;;;5104109;28;20036;-73
2022/04/25 13:32:20;;;;;;;12.00;10.35;;;14.30;99.90;;;;;;5082873;28;20024;-72
2022/04/25 13:34:46;;;;;;;10.38;9.27;;;14.30;99.90;;;;;;5089006;28;20041;-73
2022/04/25 13:37:12;;;;;;;9.65;8.52;;;14.40;99.90;;;;;;5103591;28;20035;-73
2022/04/25 13:39:38;;;;;;;10.50;9.05;;;14.30;99.90;;;;;;5109271;28;20382;-73
2022/04/25 13:42:04;;;;;;;11.65;9.80;;;14.30;99.90;;;;;;5094724;28;20032;-73
2022/04/25 13:44:30;;;;;;;11.32;9.00;;;13.80;99.90;;;;;;5089759;28;20021;-73